Time;durP1;ratioP1;P1;durP2;ratioP2;P2;SDS_P1;SDS_P2;PMS_P1;PMS_P2;Temp;Humidity;BMP_temperature;BMP_pressure;BME280_temperature;BME280_humidity;BME280_pressure;Samples;Min_cycle;Max_cycle;Signal;HPM_P1;HPM_P2
2022/11/04 00:01:58;;;;;;;17.45;9.63;;;;;;;10.65;77.37;100620.48;1759149;80;21373;-63
2022/11/04 00:04:27;;;;;;;14.98;8.48;;;;;;;10.73;77.43;100623.37;1761588;79;21046;-63
2022/11/04 00:06:55;;;;;;;11.08;8.03;;;;;;;10.75;77.49;100616.19;1762158;79;21579;-63
2022/11/04 00:09:24;;;;;;;16.05;8.88;;;;;;;10.74;77.48;100615.37;1765442;79;20980;-63
2022/11/04 00:14:36;;;;;;;11.65;8.10;;;;;;;10.80;77.30;100612.73;1770642;79;21161;-63
2022/11/04 00:17:23;;;;;;;12.63;8.70;;;;;;;10.90;77.26;100604.95;1766910;79;21038;-61
2022/11/04 00:33:24;;;;;;;12.07;7.30;;;;;;;10.81;77.15;100599.94;1752005;79;21957;-63
2022/11/04 00:33:29;;;;;;;11.48;8.00;;;;;;;10.89;77.39;100591.42;1735961;80;21046;-63
2022/11/04 00:35:57;;;;;;;12.28;8.15;;;;;;;10.91;77.23;100593.45;1756923;80;21059;-63
2022/11/04 00:38:23;;;;;;;14.65;9.03;;;;;;;10.89;77.24;100590.97;1773291;80;21000;-63
2022/11/04 00:40:50;;;;;;;10.95;7.60;;;;;;;10.89;76.96;100588.34;1773064;80;21298;-62
2022/11/04 00:43:17;;;;;;;11.03;8.28;;;;;;;10.88;76.52;100586.64;1768061;80;21542;-63
2022/11/04 00:45:44;;;;;;;12.25;8.53;;;;;;;10.84;76.44;100594.41;1761781;79;21095;-63
2022/11/04 00:48:11;;;;;;;15.48;8.30;;;;;;;10.81;76.52;100594.67;1763237;79;21480;-63
2022/11/04 00:50:38;;;;;;;13.15;8.78;;;;;;;10.74;76.68;100599.57;1761534;80;21069;-63
2022/11/04 00:53:04;;;;;;;13.58;8.93;;;;;;;10.68;76.90;100594.77;1754392;80;21246;-63
2022/11/04 00:55:31;;;;;;;13.10;8.93;;;;;;;10.68;76.96;100593.45;1762999;80;21044;-63
2022/11/04 00:57:58;;;;;;;11.95;7.97;;;;;;;10.68;76.79;100586.05;1770876;79;21008;-62
2022/11/04 01:00:24;;;;;;;12.93;8.55;;;;;;;10.70;76.86;100586.27;1760961;80;21039;-63
2022/11/04 01:02:52;;;;;;;13.58;9.18;;;;;;;10.72;76.99;100597.52;1775861;79;21019;-63
2022/11/04 01:05:19;;;;;;;11.80;7.80;;;;;;;10.69;76.88;100591.66;1761260;80;21832;-63
2022/11/04 01:07:45;;;;;;;13.55;8.23;;;;;;;10.62;77.04;100590.45;1761812;79;21044;-63
2022/11/04 01:10:13;;;;;;;16.10;8.90;;;;;;;10.64;77.30;100591.17;1772803;80;21004;-63
2022/11/04 01:12:40;;;;;;;12.03;8.58;;;;;;;10.68;76.95;100592.14;1766879;80;21047;-63
2022/11/04 01:15:08;;;;;;;11.60;8.23;;;;;;;10.66;76.73;100587.48;1766663;79;21232;-63
2022/11/04 01:17:35;;;;;;;11.40;8.70;;;;;;;10.59;76.89;100590.20;1781310;80;21206;-62
2022/11/04 01:20:01;;;;;;;12.78;8.63;;;;;;;10.53;77.06;100590.69;1721990;80;21039;-62
2022/11/04 01:22:28;;;;;;;13.10;8.15;;;;;;;10.49;77.15;100594.50;1752909;80;21054;-63
2022/11/04 01:24:55;;;;;;;11.40;7.53;;;;;;;10.49;77.10;100592.73;1771383;80;20987;-63
2022/11/04 01:27:21;;;;;;;10.20;7.42;;;;;;;10.48;77.11;100592.35;1766745;80;21567;-62
2022/11/04 01:29:48;;;;;;;13.55;8.63;;;;;;;10.47;77.17;100576.68;1787373;79;21262;-63
2022/11/04 01:32:15;;;;;;;12.73;7.75;;;;;;;10.43;77.30;100575.25;1781529;80;21595;-63
2022/11/04 01:34:41;;;;;;;14.65;8.15;;;;;;;10.39;77.36;100570.70;1802757;79;21055;-63
2022/11/04 01:37:08;;;;;;;14.33;7.55;;;;;;;10.38;77.44;100575.59;1752533;79;21019;-63
2022/11/04 01:39:34;;;;;;;12.20;8.45;;;;;;;10.39;77.34;100574.66;1752264;80;21034;-62
2022/11/04 01:42:02;;;;;;;13.30;6.90;;;;;;;10.39;77.33;100579.43;1806917;79;21251;-62
2022/11/04 01:44:49;;;;;;;14.45;7.97;;;;;;;10.35;77.35;100577.97;1765123;80;21031;-63
2022/11/04 01:47:26;;;;;;;11.78;7.50;;;;;;;10.30;77.54;100574.82;1781203;80;21050;-63
2022/11/04 01:49:57;;;;;;;12.10;7.90;;;;;;;10.28;77.63;100578.05;1795233;79;21991;-63
2022/11/04 01:52:29;;;;;;;16.60;8.13;;;;;;;10.29;77.59;100574.94;1776130;79;21045;-63
2022/11/04 01:54:58;;;;;;;11.43;8.20;;;;;;;10.29;77.62;100577.56;1803011;79;21254;-62
2022/11/04 01:57:29;;;;;;;12.70;7.92;;;;;;;10.25;77.80;100576.96;1750603;82;21537;-63
2022/11/04 01:59:57;;;;;;;16.10;7.60;;;;;;;10.19;77.94;100574.33;1756053;80;21094;-63
2022/11/04 02:02:25;;;;;;;15.08;8.25;;;;;;;10.23;77.90;100581.02;1781548;80;21046;-63
2022/11/04 02:04:51;;;;;;;10.68;7.20;;;;;;;10.27;77.78;100587.37;1804241;79;21097;-63
2022/11/04 02:07:18;;;;;;;18.27;8.18;;;;;;;10.27;77.76;100584.73;1707442;83;21262;-63
2022/11/04 02:09:44;;;;;;;11.15;7.28;;;;;;;10.29;77.89;100588.09;1792689;79;21539;-64
2022/11/04 02:14:56;;;;;;;10.35;7.08;;;;;;;10.23;77.69;100586.28;1768180;80;21105;-64
2022/11/04 02:17:52;;;;;;;11.65;6.80;;;;;;;10.24;77.46;100579.25;1781694;80;21074;-63
2022/11/04 02:20:44;;;;;;;14.68;7.75;;;;;;;10.20;77.43;100585.22;1756993;80;21255;-63
2022/11/04 02:23:49;;;;;;;9.20;6.65;;;;;;;10.12;77.67;100588.04;1750972;80;21110;-62
2022/11/04 02:26:33;;;;;;;10.05;6.00;;;;;;;10.09;77.91;100585.18;1756637;79;21465;-63
2022/11/04 02:29:29;;;;;;;10.00;6.87;;;;;;;10.16;77.83;100591.65;1758734;80;22275;-62
2022/11/04 02:32:04;;;;;;;10.15;7.15;;;;;;;10.26;77.79;100591.80;1766236;80;21532;-62
2022/11/04 02:34:56;;;;;;;13.45;7.08;;;;;;;10.28;77.22;100582.48;1762772;79;21148;-64
2022/11/04 02:37:29;;;;;;;12.60;6.70;;;;;;;10.28;77.15;100583.80;1774035;80;20927;-63
2022/11/04 02:40:07;;;;;;;10.45;5.95;;;;;;;10.15;77.20;100587.33;1752790;79;21041;-63
2022/11/04 02:43:18;;;;;;;11.30;6.58;;;;;;;10.13;77.21;100587.09;1768822;80;21097;-63
2022/11/04 02:45:48;;;;;;;16.50;6.47;;;;;;;10.14;77.16;100584.36;1754972;79;21155;-63
2022/11/04 02:48:32;;;;;;;13.05;6.87;;;;;;;10.11;77.14;100578.01;1750673;80;21143;-64
2022/11/04 02:51:07;;;;;;;11.65;7.20;;;;;;;10.08;77.41;100574.78;1721252;80;21074;-63
2022/11/04 02:53:54;;;;;;;12.73;6.70;;;;;;;10.03;77.58;100573.80;1776335;79;21042;-63
2022/11/04 02:56:20;;;;;;;9.98;6.10;;;;;;;10.05;77.57;100577.14;1730828;80;21756;-63
2022/11/04 02:58:52;;;;;;;9.93;6.35;;;;;;;10.10;77.39;100567.61;1767531;80;21038;-63
2022/11/04 03:01:19;;;;;;;15.32;7.50;;;;;;;10.10;77.35;100574.17;1763601;79;21771;-63
2022/11/04 03:03:48;;;;;;;11.15;7.30;;;;;;;10.07;77.34;100569.14;1761607;79;21082;-63
2022/11/04 03:06:17;;;;;;;12.55;6.53;;;;;;;10.02;77.50;100569.52;1752936;80;21042;-63
2022/11/04 03:08:47;;;;;;;9.65;6.03;;;;;;;10.02;77.56;100564.25;1768731;79;21059;-64
2022/11/04 03:11:24;;;;;;;15.05;6.60;;;;;;;10.06;77.45;100557.80;1739396;80;21074;-63
2022/11/04 03:14:05;;;;;;;11.33;7.03;;;;;;;10.09;77.34;100555.43;1763855;79;21183;-63
2022/11/04 03:16:46;;;;;;;9.28;6.15;;;;;;;10.05;77.39;100558.73;1758415;80;21026;-64
2022/11/04 03:19:28;;;;;;;12.75;6.47;;;;;;;10.01;77.51;100561.25;1756470;79;21004;-63
2022/11/04 03:22:02;;;;;;;11.70;5.92;;;;;;;10.00;77.43;100563.50;1743043;80;21094;-64
2022/11/04 03:24:30;;;;;;;10.30;6.25;;;;;;;10.03;77.25;100562.80;1751667;80;21023;-64
2022/11/04 03:27:03;;;;;;;11.28;6.85;;;;;;;10.05;77.14;100561.37;1773585;80;21811;-64
2022/11/04 03:29:35;;;;;;;10.23;6.30;;;;;;;10.06;77.27;100561.74;1776554;79;21156;-63
2022/11/04 03:32:24;;;;;;;13.10;6.67;;;;;;;10.06;77.19;100566.17;1769577;80;21588;-63
2022/11/04 03:34:50;;;;;;;10.03;5.12;;;;;;;10.06;77.09;100564.38;1773551;79;21070;-63
2022/11/04 03:37:17;;;;;;;13.25;7.37;;;;;;;10.12;76.91;100570.95;1773151;80;21101;-63
2022/11/04 03:39:43;;;;;;;15.43;6.45;;;;;;;10.18;76.74;100562.13;1780598;79;21145;-64
2022/11/04 03:42:20;;;;;;;13.83;6.62;;;;;;;10.22;76.64;100573.25;1754611;79;22170;-63
2022/11/04 03:44:52;;;;;;;11.00;6.40;;;;;;;10.17;76.26;100577.56;1747325;80;21039;-63
2022/11/04 03:47:21;;;;;;;11.00;6.05;;;;;;;10.13;76.15;100593.19;1773083;80;21007;-63
2022/11/04 03:49:48;;;;;;;11.45;6.20;;;;;;;10.11;75.99;100573.23;1770385;80;21051;-63
2022/11/04 03:52:15;;;;;;;12.50;6.85;;;;;;;10.12;76.07;100586.27;1772391;79;21138;-64
2022/11/04 03:54:42;;;;;;;9.45;5.95;;;;;;;10.10;76.04;100588.16;1765820;79;21571;-63
2022/11/04 03:57:23;;;;;;;13.75;6.40;;;;;;;10.04;75.98;100582.06;1745308;80;21027;-63
2022/11/04 04:00:06;;;;;;;9.10;5.47;;;;;;;10.00;75.94;100580.14;1705679;80;22128;-63
2022/11/04 04:03:07;;;;;;;11.12;6.35;;;;;;;10.00;75.94;100567.00;1771431;79;21122;-63
2022/11/04 04:05:43;;;;;;;16.17;6.67;;;;;;;10.00;75.91;100571.39;1760980;80;21500;-63
2022/11/04 04:08:27;;;;;;;11.25;5.62;;;;;;;9.98;76.13;100571.99;1749744;80;21031;-63
2022/11/04 04:11:05;;;;;;;11.20;5.87;;;;;;;9.96;76.26;100568.64;1761485;80;21508;-63
2022/11/04 04:13:40;;;;;;;9.63;5.50;;;;;;;10.00;76.22;100567.45;1757224;80;21087;-63
2022/11/04 04:16:12;;;;;;;11.35;6.12;;;;;;;10.07;75.80;100563.88;1748196;80;21097;-63
2022/11/04 04:18:52;;;;;;;15.10;6.42;;;;;;;10.10;75.65;100573.69;1752884;79;21862;-62
2022/11/04 04:21:22;;;;;;;13.53;9.28;;;;;;;10.06;75.66;100572.75;1753008;80;21102;-62
2022/11/04 04:29:23;;;;;;;26.73;19.57;;;;;;;10.09;75.59;100572.52;1770929;80;21078;-63
2022/11/04 04:31:49;;;;;;;35.52;25.90;;;;;;;10.08;75.47;100580.03;1778271;80;21300;-64
2022/11/04 04:34:19;;;;;;;65.40;47.67;;;;;;;10.02;75.63;100575.59;1780091;79;21043;-63
2022/11/04 04:37:09;;;;;;;64.82;45.63;;;;;;;9.97;75.77;100575.56;1775580;80;21096;-63
2022/11/04 04:45:35;;;;;;;29.15;22.17;;;;;;;9.90;76.13;100587.03;1759943;79;22211;-63
2022/11/04 04:48:02;;;;;;;24.37;15.28;;;;;;;9.88;76.28;100595.97;1767454;80;21082;-63
2022/11/04 04:50:36;;;;;;;15.10;12.33;;;;;;;9.79;76.60;100592.23;1771170;79;21106;-63
2022/11/04 04:53:03;;;;;;;12.15;7.47;;;;;;;9.83;76.54;100597.61;1763032;80;21081;-63
2022/11/04 04:55:33;;;;;;;11.40;7.17;;;;;;;9.86;76.54;100602.17;1774921;79;21535;-63
2022/11/04 04:57:59;;;;;;;22.55;6.97;;;;;;;9.90;76.50;100604.58;1766917;80;21300;-63
2022/11/04 05:00:28;;;;;;;12.47;6.75;;;;;;;9.88;76.53;100599.42;1773781;79;21007;-63
2022/11/04 05:02:55;;;;;;;10.82;6.62;;;;;;;9.88;76.65;100598.59;1774949;80;21551;-63
2022/11/04 05:05:21;;;;;;;10.90;6.03;;;;;;;9.83;76.64;100601.10;1768365;79;21437;-63
2022/11/04 05:07:47;;;;;;;10.38;6.58;;;;;;;9.84;76.55;100601.45;1770422;80;21095;-63
2022/11/04 05:10:15;;;;;;;8.48;5.60;;;;;;;9.89;76.30;100601.60;1773105;80;21232;-63
2022/11/04 05:15:29;;;;;;;12.35;6.67;;;;;;;9.86;76.33;100600.02;1770462;79;21045;-63
2022/11/04 05:17:58;;;;;;;12.82;6.12;;;;;;;9.85;76.41;100599.65;1773540;79;21170;-63
2022/11/04 05:20:25;;;;;;;13.55;6.65;;;;;;;9.86;76.32;100602.65;1772384;80;21099;-63
2022/11/04 05:22:53;;;;;;;11.12;6.62;;;;;;;9.91;76.12;100597.06;1766590;80;21200;-63
2022/11/04 05:25:20;;;;;;;14.33;7.00;;;;;;;9.94;76.13;100604.24;1770294;79;21491;-63
2022/11/04 05:27:47;;;;;;;11.70;6.62;;;;;;;9.93;76.05;100603.04;1766546;79;22548;-64
2022/11/04 05:30:13;;;;;;;10.82;6.22;;;;;;;9.89;76.06;100601.11;1759867;80;21618;-62
2022/11/04 05:32:40;;;;;;;14.43;5.90;;;;;;;9.90;76.08;100601.95;1760251;80;21491;-63
2022/11/04 05:35:08;;;;;;;13.72;6.50;;;;;;;9.95;75.89;100600.67;1769014;79;22147;-63
2022/11/04 05:37:35;;;;;;;8.98;5.83;;;;;;;9.97;75.81;100607.10;1776728;80;21043;-63
2022/11/04 05:40:02;;;;;;;13.00;7.75;;;;;;;9.95;75.94;100608.56;1772010;79;21030;-63
2022/11/04 05:42:30;;;;;;;17.55;8.58;;;;;;;9.93;75.99;100609.13;1763294;80;21027;-63
2022/11/04 05:44:57;;;;;;;12.80;7.92;;;;;;;9.92;75.99;100611.41;1767149;79;21176;-63
2022/11/04 05:47:23;;;;;;;12.70;7.53;;;;;;;9.98;75.84;100608.30;1763548;80;21493;-63
2022/11/04 05:49:50;;;;;;;13.58;6.75;;;;;;;10.01;75.72;100611.20;1770300;79;21109;-63
2022/11/04 05:52:17;;;;;;;11.53;6.28;;;;;;;10.01;75.73;100618.59;1777856;79;21034;-63
2022/11/04 05:54:44;;;;;;;12.53;6.90;;;;;;;9.99;75.69;100619.20;1765791;79;21442;-62
2022/11/04 05:57:11;;;;;;;13.93;6.37;;;;;;;9.98;75.58;100621.94;1756860;80;22345;-63
2022/11/04 05:59:39;;;;;;;12.13;6.58;;;;;;;10.03;75.40;100625.06;1770466;79;21058;-63
2022/11/04 06:02:06;;;;;;;11.95;6.72;;;;;;;10.05;75.20;100631.04;1759215;80;21049;-63
2022/11/04 06:04:33;;;;;;;13.22;7.00;;;;;;;10.02;75.24;100637.86;1765907;80;21515;-63
2022/11/04 06:07:00;;;;;;;16.73;8.05;;;;;;;9.96;75.29;100636.99;1768500;80;21348;-63
2022/11/04 06:09:40;;;;;;;20.35;12.35;;;;;;;9.94;75.34;100634.95;1770531;79;21027;-63
2022/11/04 06:18:30;;;;;;;16.52;7.33;;;;;;;10.01;75.24;100644.89;1656505;84;21550;-94
2022/11/04 06:21:20;;;;;;;12.73;7.42;;;;;;;9.96;75.31;100645.70;1656603;84;22981;-95
2022/11/04 06:23:47;;;;;;;10.90;6.47;;;;;;;10.00;75.10;100646.31;1618254;86;21103;-95
2022/11/04 06:26:14;;;;;;;11.55;7.65;;;;;;;10.12;74.95;100644.57;1647660;86;21943;-94
2022/11/04 06:28:42;;;;;;;13.15;7.72;;;;;;;10.16;74.84;100643.41;1657353;84;21082;-94
2022/11/04 06:31:10;;;;;;;13.53;7.37;;;;;;;10.14;74.91;100640.89;1657299;86;21016;-94
2022/11/04 06:33:39;;;;;;;12.95;7.70;;;;;;;10.11;74.78;100643.74;1657019;83;21452;-94
2022/11/04 06:36:07;;;;;;;13.48;8.28;;;;;;;10.08;74.72;100646.59;1647112;86;21031;-94
2022/11/04 06:38:36;;;;;;;14.35;7.08;;;;;;;10.16;74.44;100647.35;1633043;86;21090;-95
2022/11/04 06:41:05;;;;;;;17.67;7.65;;;;;;;10.23;74.26;100644.14;1650506;85;21066;-94
2022/11/04 06:43:33;;;;;;;15.15;7.87;;;;;;;10.22;74.45;100642.48;1649916;85;21087;-95
2022/11/04 06:48:41;;;;;;;10.45;6.97;;;;;;;10.22;74.42;100643.80;1719202;82;66227;-51
2022/11/04 06:51:08;;;;;;;12.23;6.95;;;;;;;10.25;74.41;100645.34;1731158;82;21101;-51
2022/11/04 06:53:34;;;;;;;13.90;8.03;;;;;;;10.31;74.13;100646.70;1731328;82;21105;-51
2022/11/04 06:56:02;;;;;;;14.05;7.65;;;;;;;10.34;74.01;100651.27;1692138;83;21532;-50
2022/11/04 06:58:29;;;;;;;12.88;6.92;;;;;;;10.35;74.07;100643.73;1722647;82;21223;-51
2022/11/04 07:00:56;;;;;;;16.82;9.15;;;;;;;10.34;74.12;100638.13;1717635;83;21102;-51
2022/11/04 07:03:22;;;;;;;17.62;10.50;;;;;;;10.36;74.18;100644.10;1719946;82;21079;-51
2022/11/04 07:05:49;;;;;;;17.20;9.63;;;;;;;10.38;73.73;100639.55;1729471;82;21283;-51
2022/11/04 07:08:15;;;;;;;14.13;8.20;;;;;;;10.38;73.81;100637.41;1719562;82;21061;-50
2022/11/04 07:10:43;;;;;;;16.62;9.13;;;;;;;10.39;74.07;100642.56;1720687;83;21066;-51
2022/11/04 07:13:11;;;;;;;11.88;7.65;;;;;;;10.41;73.99;100645.91;1721286;83;21103;-50
2022/11/04 07:15:38;;;;;;;13.00;7.78;;;;;;;10.41;73.94;100642.45;1720612;83;21521;-51
2022/11/04 07:18:08;;;;;;;13.95;8.33;;;;;;;10.46;73.80;100636.85;1721395;83;21336;-51
2022/11/04 07:20:35;;;;;;;15.63;9.05;;;;;;;10.53;73.58;100639.37;1719665;83;21079;-53
2022/11/04 07:23:02;;;;;;;19.12;10.25;;;;;;;10.52;73.58;100639.85;1718118;83;21716;-50
2022/11/04 07:25:29;;;;;;;14.05;9.10;;;;;;;10.58;73.74;100648.58;1721072;82;22339;-51
2022/11/04 07:27:56;;;;;;;12.30;7.80;;;;;;;10.62;73.39;100650.98;1718942;83;21047;-51
2022/11/04 07:30:23;;;;;;;11.78;8.28;;;;;;;10.64;73.07;100640.72;1720437;82;21000;-51
2022/11/04 07:32:50;;;;;;;16.07;10.13;;;;;;;10.73;73.08;100643.95;1721011;82;21114;-51
2022/11/04 07:35:17;;;;;;;17.82;11.65;;;;;;;10.80;72.86;100648.26;1718373;83;21206;-50
2022/11/04 07:37:43;;;;;;;17.50;10.80;;;;;;;10.79;72.91;100639.99;1720777;83;21557;-51
2022/11/04 07:40:11;;;;;;;12.93;8.60;;;;;;;10.75;72.83;100643.34;1717019;82;21063;-50
2022/11/04 07:42:39;;;;;;;15.88;8.30;;;;;;;10.75;72.85;100643.83;1719565;83;21079;-51
2022/11/04 07:45:08;;;;;;;14.38;8.65;;;;;;;10.81;72.51;100639.88;1717872;82;21557;-50
2022/11/04 07:47:35;;;;;;;13.08;8.28;;;;;;;10.80;72.62;100639.53;1724223;82;21212;-50
2022/11/04 07:50:01;;;;;;;12.40;8.38;;;;;;;10.76;72.94;100643.72;1732151;81;21092;-50
2022/11/04 07:52:29;;;;;;;12.35;8.03;;;;;;;10.74;72.95;100640.83;1731748;82;21135;-50
2022/11/04 07:54:55;;;;;;;17.00;9.20;;;;;;;10.73;72.89;100648.38;1731051;81;21060;-51
2022/11/04 07:57:22;;;;;;;15.38;9.23;;;;;;;10.75;72.79;100644.66;1733325;82;21151;-50
2022/11/04 07:59:48;;;;;;;18.87;9.48;;;;;;;10.78;72.71;100640.48;1726601;81;21226;-51
2022/11/04 08:02:14;;;;;;;11.70;8.95;;;;;;;10.76;73.11;100637.63;1737368;82;21051;-51
2022/11/04 08:04:41;;;;;;;14.33;9.58;;;;;;;10.80;73.04;100636.41;1737675;81;21078;-50
2022/11/04 08:07:09;;;;;;;14.38;9.40;;;;;;;10.81;73.03;100639.42;1737893;82;21079;-50
2022/11/04 08:09:36;;;;;;;14.83;9.40;;;;;;;10.85;72.55;100636.90;1731174;81;21588;-50
2022/11/04 08:12:05;;;;;;;15.68;8.68;;;;;;;10.89;72.02;100638.36;1751667;81;21412;-50
2022/11/04 08:14:31;;;;;;;12.45;8.75;;;;;;;10.90;71.79;100641.81;1737781;81;21111;-49
2022/11/04 08:16:58;;;;;;;10.98;8.55;;;;;;;10.89;71.62;100637.04;1732676;81;21060;-49
2022/11/04 08:19:26;;;;;;;16.40;10.18;;;;;;;10.89;71.42;100630.91;1727477;81;21532;-52
2022/11/04 08:21:53;;;;;;;19.67;12.68;;;;;;;10.90;71.66;100625.53;1730330;81;22566;-50
2022/11/04 08:24:20;;;;;;;16.15;10.82;;;;;;;10.99;71.76;100629.23;1731730;81;21102;-50
2022/11/04 08:26:49;;;;;;;13.18;8.65;;;;;;;11.04;71.49;100633.66;1730587;82;21062;-49
2022/11/04 08:29:15;;;;;;;14.33;9.93;;;;;;;11.17;71.29;100634.88;1728554;81;21153;-53
2022/11/04 08:31:41;;;;;;;13.45;8.55;;;;;;;11.22;70.97;100635.34;1733216;81;20987;-49
2022/11/04 08:34:08;;;;;;;11.55;8.48;;;;;;;11.24;70.10;100639.17;1735368;82;21089;-50
2022/11/04 08:36:37;;;;;;;11.57;8.28;;;;;;;11.20;70.14;100637.76;1731293;81;21204;-55
2022/11/04 08:39:04;;;;;;;12.60;8.13;;;;;;;11.17;70.07;100645.89;1729256;82;21539;-49
2022/11/04 08:41:31;;;;;;;10.58;6.90;;;;;;;11.17;69.81;100638.82;1730029;81;21120;-49
2022/11/04 08:43:59;;;;;;;10.00;6.90;;;;;;;11.18;69.48;100633.92;1731903;81;21545;-49
2022/11/04 08:46:28;;;;;;;12.45;8.90;;;;;;;11.17;69.54;100628.77;1731064;81;21048;-50
2022/11/04 08:48:54;;;;;;;10.95;8.68;;;;;;;11.14;69.86;100634.62;1730427;82;21241;-49
2022/11/04 08:51:23;;;;;;;12.70;7.58;;;;;;;11.14;70.23;100642.52;1731341;81;20986;-49
2022/11/04 08:53:50;;;;;;;10.40;7.50;;;;;;;11.15;70.30;100646.84;1730330;81;21047;-50
2022/11/04 08:56:28;;;;;;;14.13;8.33;;;;;;;11.23;70.17;100638.80;1733473;81;21536;-50
2022/11/04 08:58:57;;;;;;;13.78;8.58;;;;;;;11.26;70.01;100641.20;1740611;82;21593;-49
2022/11/04 09:01:24;;;;;;;11.35;8.28;;;;;;;11.22;69.82;100636.66;1718902;81;21105;-49
2022/11/04 09:03:51;;;;;;;14.00;9.15;;;;;;;11.20;70.09;100629.37;1715862;82;21054;-49
2022/11/04 09:06:22;;;;;;;14.20;9.55;;;;;;;11.19;70.13;100627.68;1740291;81;21117;-50
2022/11/04 09:08:51;;;;;;;14.40;9.65;;;;;;;11.23;69.80;100631.77;1731365;82;21088;-50
2022/11/04 09:11:17;;;;;;;16.93;9.93;;;;;;;11.29;69.38;100629.94;1732296;81;21062;-49
2022/11/04 09:13:45;;;;;;;12.28;8.53;;;;;;;11.31;69.46;100633.77;1734002;82;21114;-50
2022/11/04 09:16:12;;;;;;;12.53;9.33;;;;;;;11.30;69.50;100636.90;1730767;81;21109;-50
2022/11/04 09:18:41;;;;;;;16.17;11.05;;;;;;;11.25;69.33;100631.16;1743768;81;21663;-50
2022/11/04 09:21:08;;;;;;;16.12;9.88;;;;;;;11.21;69.36;100634.98;1736516;81;21010;-49
2022/11/04 09:23:35;;;;;;;16.48;10.23;;;;;;;11.12;68.95;100628.64;1735145;82;21579;-49
2022/11/04 09:26:07;;;;;;;13.08;9.43;;;;;;;11.05;69.04;100636.67;1729894;81;22096;-50
2022/11/04 09:28:35;;;;;;;13.35;9.45;;;;;;;11.11;69.11;100626.98;1728246;81;21006;-49
2022/11/04 09:31:07;;;;;;;14.68;9.45;;;;;;;11.15;69.18;100625.77;1730255;81;21048;-50
2022/11/04 09:33:34;;;;;;;13.03;9.20;;;;;;;11.12;69.52;100626.49;1727608;82;21014;-50
2022/11/04 09:36:01;;;;;;;10.95;8.55;;;;;;;11.06;69.40;100626.51;1732071;81;21029;-49
2022/11/04 09:38:28;;;;;;;14.10;9.48;;;;;;;11.02;69.13;100629.49;1731373;82;21211;-50
2022/11/04 09:40:55;;;;;;;13.90;8.20;;;;;;;10.92;69.67;100634.63;1729962;81;21117;-50
2022/11/04 09:43:27;;;;;;;13.30;9.20;;;;;;;10.92;69.92;100624.92;1732130;81;21062;-50
2022/11/04 09:45:55;;;;;;;17.32;9.25;;;;;;;10.94;70.07;100627.45;1726487;81;21557;-49
2022/11/04 09:48:37;;;;;;;12.13;9.33;;;;;;;10.95;70.23;100623.86;1731517;82;21137;-50
2022/11/04 09:51:05;;;;;;;15.28;9.48;;;;;;;10.97;70.44;100625.41;1740283;81;21436;-50
2022/11/04 09:53:49;;;;;;;12.23;8.13;;;;;;;10.93;69.99;100626.61;1743356;82;21054;-49
2022/11/04 09:56:25;;;;;;;12.23;8.05;;;;;;;10.86;69.67;100624.56;1682934;82;21064;-49
2022/11/04 09:58:51;;;;;;;;;;;;;;;10.82;69.46;100624.45;1764524;80;21549;-49
2022/11/04 10:01:26;;;;;;;14.47;8.38;;;;;;;10.82;69.49;100617.88;1764444;80;20644;-50
2022/11/04 10:04:51;;;;;;;12.98;9.05;;;;;;;10.81;69.71;100626.26;1745695;81;21529;-50
2022/11/04 10:07:38;;;;;;;10.70;8.28;;;;;;;10.80;69.56;100625.06;1767460;80;21131;-50
2022/11/04 10:10:33;;;;;;;13.08;8.65;;;;;;;10.73;69.94;100622.89;1767952;80;21490;-49
2022/11/04 10:13:25;;;;;;;12.70;7.50;;;;;;;10.68;70.26;100631.62;1758687;80;21009;-49
2022/11/04 10:16:04;;;;;;;11.43;7.97;;;;;;;10.72;70.47;100621.69;1735747;80;21029;-50
2022/11/04 10:19:13;;;;;;;10.35;7.28;;;;;;;10.77;70.31;100626.95;1767387;80;21816;-50
2022/11/04 10:22:09;;;;;;;13.25;7.90;;;;;;;10.76;70.11;100624.46;1769151;81;21527;-49
2022/11/04 10:24:43;;;;;;;13.78;8.18;;;;;;;10.72;70.16;100626.95;1761742;80;21050;-49
2022/11/04 10:27:16;;;;;;;12.03;7.12;;;;;;;10.68;70.15;100626.35;1760511;80;21093;-50
2022/11/04 10:29:55;;;;;;;14.70;8.98;;;;;;;10.58;70.19;100627.53;1758895;80;21123;-50
2022/11/04 10:32:33;;;;;;;11.73;8.05;;;;;;;10.54;70.24;100628.73;1762322;81;21106;-50
2022/11/04 10:38:26;;;;;;;13.30;7.75;;;;;;;10.58;70.73;100606.48;1794117;78;22621;-62
2022/11/04 10:40:53;;;;;;;13.00;8.10;;;;;;;10.70;70.54;100615.22;1810754;78;20955;-63
2022/11/04 10:43:33;;;;;;;13.98;8.98;;;;;;;10.75;70.34;100611.76;1802338;78;21829;-62
2022/11/04 10:46:36;;;;;;;14.30;8.18;;;;;;;10.78;69.96;100605.44;1807982;78;21492;-62
2022/11/04 10:49:19;;;;;;;14.35;8.28;;;;;;;10.76;69.96;100604.72;1816204;78;21007;-62
2022/11/04 10:51:46;;;;;;;13.08;6.95;;;;;;;10.77;69.83;100601.11;1787828;78;21042;-63
2022/11/04 10:54:12;;;;;;;11.40;7.35;;;;;;;10.86;69.49;100603.50;1791887;78;20983;-62
2022/11/04 10:56:48;;;;;;;12.40;7.42;;;;;;;10.91;69.29;100606.16;1795148;78;21257;-63
2022/11/04 10:59:29;;;;;;;14.20;8.30;;;;;;;10.92;69.40;100603.86;1803504;78;20990;-62
2022/11/04 11:01:57;;;;;;;12.58;8.08;;;;;;;10.94;69.56;100596.70;1811928;78;20951;-63
2022/11/04 11:04:34;;;;;;;13.88;8.63;;;;;;;10.93;69.24;100591.07;1801870;78;21030;-62
2022/11/04 11:07:05;;;;;;;12.85;8.08;;;;;;;10.88;69.36;100588.45;1801089;78;21547;-62
2022/11/04 11:09:36;;;;;;;11.43;7.35;;;;;;;10.88;69.28;100586.64;1788402;78;21203;-61
2022/11/04 11:12:15;;;;;;;14.98;8.90;;;;;;;10.95;69.14;100585.20;1743371;80;21114;-63
2022/11/04 11:14:42;;;;;;;11.08;7.83;;;;;;;11.02;69.03;100588.19;1752415;81;21123;-63
2022/11/04 11:17:27;;;;;;;13.70;8.03;;;;;;;11.03;68.96;100587.24;1751494;81;21067;-63
2022/11/04 11:20:07;;;;;;;12.47;8.33;;;;;;;11.03;68.90;100583.75;1746586;81;21056;-62
2022/11/04 11:22:40;;;;;;;13.50;7.58;;;;;;;11.01;68.65;100583.90;1738811;81;21156;-63
2022/11/04 11:25:33;;;;;;;12.18;6.80;;;;;;;10.94;68.70;100575.65;1734060;81;21005;-62
2022/11/04 11:28:04;;;;;;;12.73;7.62;;;;;;;10.94;68.82;100573.47;1767719;80;21054;-62
2022/11/04 11:30:46;;;;;;;11.55;7.28;;;;;;;11.04;68.73;100575.73;1747229;81;20999;-62
2022/11/04 11:33:30;;;;;;;12.40;8.20;;;;;;;11.10;68.54;100573.94;1738837;81;21042;-63
2022/11/04 11:36:11;;;;;;;11.88;7.25;;;;;;;11.11;68.35;100575.63;1737848;81;21854;-64
2022/11/04 11:38:52;;;;;;;13.22;7.45;;;;;;;11.12;68.19;100579.92;1753475;81;21302;-63
2022/11/04 11:41:22;;;;;;;12.13;7.85;;;;;;;11.14;68.11;100571.90;1751722;81;21099;-63
2022/11/04 11:43:52;;;;;;;14.63;7.28;;;;;;;11.14;68.01;100575.84;1745537;81;21074;-63
2022/11/04 11:46:25;;;;;;;10.55;6.42;;;;;;;11.21;67.41;100571.76;1743397;81;21034;-62
2022/11/04 11:48:59;;;;;;;13.32;7.35;;;;;;;11.36;67.33;100574.14;1732091;81;21025;-63
2022/11/04 11:51:25;;;;;;;11.15;7.28;;;;;;;11.55;66.88;100578.30;1732412;81;21602;-63
2022/11/04 11:54:28;;;;;;;11.53;7.53;;;;;;;11.71;66.53;100569.47;1736859;81;21562;-63
2022/11/04 11:56:56;;;;;;;9.85;7.10;;;;;;;11.83;65.72;100572.90;1732673;81;21039;-63
2022/11/04 11:59:37;;;;;;;11.35;7.35;;;;;;;11.82;65.37;100570.41;1754288;81;21058;-63
2022/11/04 12:02:43;;;;;;;13.35;7.40;;;;;;;11.76;65.32;100566.95;1751045;81;22087;-63
2022/11/04 12:05:11;;;;;;;10.98;6.72;;;;;;;11.66;65.33;100567.69;1742198;81;21090;-63
2022/11/04 12:08:05;;;;;;;12.30;6.97;;;;;;;11.57;64.97;100568.45;1749897;81;21003;-63
2022/11/04 12:10:43;;;;;;;10.45;7.30;;;;;;;11.52;65.31;100566.19;1731539;81;21000;-62
2022/11/04 12:13:26;;;;;;;12.53;7.83;;;;;;;11.42;65.62;100567.07;1747340;81;21047;-62
2022/11/04 12:16:35;;;;;;;10.15;7.50;;;;;;;11.31;65.89;100562.19;1760544;81;21158;-62
2022/11/04 12:19:28;;;;;;;12.45;7.72;;;;;;;11.19;65.96;100564.95;1743160;81;21078;-62
2022/11/04 12:22:15;;;;;;;12.40;7.50;;;;;;;11.07;66.73;100562.82;1756513;81;21034;-62
2022/11/04 12:25:20;;;;;;;11.85;7.35;;;;;;;11.04;67.09;100557.80;1744540;81;21119;-62
2022/11/04 12:28:16;;;;;;;13.18;7.67;;;;;;;11.13;67.18;100555.76;1748814;81;21050;-62